Aviation Digital Data Service (ADDS)

Output produced by METARs form (0602 UTC 25 June 2018)
found at http://www.aviationweather.gov/adds/metars/
 
METAR text: KSAR 250555Z AUTO 09004KT 10SM SCT031 21/21 A2996 RMK AO2 60002 T02050205 10215 20205
Conditions at: KSAR (SPARTA , IL, US) observed 0555 UTC 25 June 2018
Temperature: 20.5°C (69°F)
Dewpoint: 20.5°C (69°F) [RH = 100%]
Pressure (altimeter): 29.96 inches Hg (1014.6 mb)
Winds: from the E (90 degrees) at 5 MPH (4 knots; 2.1 m/s)
Visibility: 10 or more miles (16+ km)
Ceiling: at least 12,000 feet AGL
Clouds: scattered clouds at 3100 feet AGL
Weather: automated observation with no human augmentation;
there may or may not be significant weather present at this time